Time;durP1;ratioP1;P1;durP2;ratioP2;P2;SDS_P1;SDS_P2;PMS_P1;PMS_P2;Temp;Humidity;BMP_temperature;BMP_pressure;BME280_temperature;BME280_humidity;BME280_pressure;Samples;Min_cycle;Max_cycle;Signal;HPM_P1;HPM_P2
2022/07/18 00:01:05;;;;;;;2.55;0.52;;;;;;;;;;5055024;28;20126;-57
2022/07/18 00:03:43;;;;;;;1.70;0.77;;;;;;;;;;5054976;28;20122;-56
2022/07/18 00:06:14;;;;;;;1.75;0.70;;;;;;;;;;5055186;28;20029;-56
2022/07/18 00:08:46;;;;;;;1.13;0.65;;;;;;;;;;5054854;28;20021;-57
2022/07/18 00:11:33;;;;;;;1.33;0.57;;;;;;;;;;5053434;28;20033;-56
2022/07/18 00:14:04;;;;;;;1.45;0.70;;;;;;;;;;5053504;28;20048;-57
2022/07/18 00:16:43;;;;;;;1.52;0.50;;;;;;;;;;5054800;28;20025;-55
2022/07/18 00:19:12;;;;;;;1.77;0.80;;;;;;;;;;5053553;28;20020;-56
2022/07/18 00:21:46;;;;;;;1.67;0.73;;;;;;;;;;5053603;28;20108;-56
2022/07/18 00:24:15;;;;;;;2.67;1.10;;;;;;;;;;5054834;28;20409;-57
2022/07/18 00:26:48;;;;;;;1.27;0.55;;;;;;;;;;5058072;28;20025;-57
2022/07/18 00:29:16;;;;;;;1.40;0.52;;;;;;;;;;5074675;28;20043;-56
2022/07/18 00:32:11;;;;;;;2.85;0.85;;;;;;;;;;5073857;28;20020;-57
2022/07/18 00:35:15;;;;;;;1.80;0.80;;;;;;;;;;5072879;28;20056;-56
2022/07/18 00:37:44;;;;;;;2.42;0.50;;;;;;;;;;5072968;28;20075;-56
2022/07/18 00:40:10;;;;;;;1.20;0.68;;;;;;;;;;5073329;28;20485;-56
2022/07/18 00:42:42;;;;;;;2.00;0.73;;;;;;;;;;5074054;28;20024;-56
2022/07/18 00:45:22;;;;;;;1.50;0.68;;;;;;;;;;5074633;28;20032;-56
2022/07/18 00:47:51;;;;;;;2.03;1.00;;;;;;;;;;5072993;28;20086;-56
2022/07/18 00:50:18;;;;;;;1.27;0.63;;;;;;;;;;5070019;28;20035;-57
2022/07/18 00:52:50;;;;;;;1.92;1.00;;;;;;;;;;5074011;28;20036;-56
2022/07/18 00:55:17;;;;;;;1.20;0.50;;;;;;;;;;5074459;28;20024;-56
2022/07/18 01:03:14;;;;;;;1.30;0.70;;;;;;;;;;5054003;28;20568;-56
2022/07/18 01:06:01;;;;;;;1.05;0.57;;;;;;;;;;5053894;28;20051;-57
2022/07/18 01:08:32;;;;;;;2.17;0.85;;;;;;;;;;5053861;28;20040;-57
2022/07/18 01:11:08;;;;;;;1.23;0.80;;;;;;;;;;5053040;28;20036;-56
2022/07/18 01:13:40;;;;;;;2.03;0.93;;;;;;;;;;5053529;28;20604;-57
2022/07/18 01:16:15;;;;;;;2.83;1.10;;;;;;;;;;5053746;28;20379;-57
2022/07/18 01:18:50;;;;;;;1.85;0.85;;;;;;;;;;5051900;28;20660;-56
2022/07/18 01:21:29;;;;;;;1.30;0.60;;;;;;;;;;5051278;28;20037;-56
2022/07/18 01:24:05;;;;;;;;;;;;;;;;;;;;;
2022/07/18 01:26:33;;;;;;;2.00;0.85;;;;;;;;;;5054388;28;20040;-57
2022/07/18 01:29:02;;;;;;;1.92;0.80;;;;;;;;;;5073432;28;20093;-56
2022/07/18 01:31:42;;;;;;;1.70;0.95;;;;;;;;;;5071593;28;20027;-55
2022/07/18 01:34:46;;;;;;;2.38;1.23;;;;;;;;;;5073252;28;20040;-57
2022/07/18 01:37:22;;;;;;;1.33;0.70;;;;;;;;;;5070827;28;20044;-57
2022/07/18 01:40:04;;;;;;;1.30;0.88;;;;;;;;;;5049132;28;20041;-57
2022/07/18 01:42:33;;;;;;;0.85;0.50;;;;;;;;;;5051034;28;20076;-55
2022/07/18 01:45:15;;;;;;;1.25;0.68;;;;;;;;;;5048985;28;20021;-57
2022/07/18 01:47:50;;;;;;;5.93;1.42;;;;;;;;;;5031049;28;20491;-57
2022/07/18 01:50:16;;;;;;;2.63;1.08;;;;;;;;;;5037382;28;20036;-56
2022/07/18 01:53:11;;;;;;;1.83;0.93;;;;;;;;;;5051550;28;20123;-56
2022/07/18 01:55:44;;;;;;;2.60;1.30;;;;;;;;;;5052518;28;20052;-56
2022/07/18 02:01:11;;;;;;;2.53;1.75;;;;;;;;;;5034255;28;20030;-56
2022/07/18 02:03:52;;;;;;;2.40;1.60;;;;;;;;;;5031556;28;20044;-56
2022/07/18 02:06:22;;;;;;;2.42;1.50;;;;;;;;;;5033161;28;20025;-56
2022/07/18 02:08:55;;;;;;;3.10;1.63;;;;;;;;;;5031802;28;20037;-56
2022/07/18 02:11:45;;;;;;;2.30;1.60;;;;;;;;;;5032568;28;20033;-54
2022/07/18 02:14:18;;;;;;;3.78;1.58;;;;;;;;;;5032552;28;20464;-56
2022/07/18 02:17:02;;;;;;;;;;;;;;;;;;;;;
2022/07/18 02:19:44;;;;;;;2.78;1.90;;;;;;;;;;5052570;28;20488;-55
2022/07/18 02:22:13;;;;;;;3.00;2.25;;;;;;;;;;5050606;28;20048;-56
2022/07/18 02:24:47;;;;;;;3.63;1.67;;;;;;;;;;5052390;28;20107;-57
2022/07/18 02:27:34;;;;;;;3.45;2.05;;;;;;;;;;5051428;28;20049;-56
2022/07/18 02:30:28;;;;;;;2.50;1.85;;;;;;;;;;5053434;28;20056;-56
2022/07/18 02:33:00;;;;;;;2.65;2.25;;;;;;;;;;5052279;28;20104;-57
2022/07/18 02:35:52;;;;;;;;;;;;;;;;;;;;;
2022/07/18 02:41:31;;;;;;;2.50;1.52;;;;;;;;;;5027648;28;20120;-55
2022/07/18 02:44:00;;;;;;;3.08;2.25;;;;;;;;;;5052592;28;20009;-59
2022/07/18 02:46:26;;;;;;;3.17;1.88;;;;;;;;;;5051186;28;20561;-57
2022/07/18 02:49:03;;;;;;;3.03;2.00;;;;;;;;;;5051320;28;20061;-56
2022/07/18 02:51:29;;;;;;;2.50;1.60;;;;;;;;;;5031560;28;20028;-56
2022/07/18 02:54:11;;;;;;;;;;;;;;;;;;;;;
2022/07/18 02:56:49;;;;;;;2.80;1.60;;;;;;;;;;5032162;28;20360;-54
2022/07/18 02:59:24;;;;;;;4.38;1.90;;;;;;;;;;5030223;28;20394;-56
2022/07/18 03:02:19;;;;;;;3.22;1.77;;;;;;;;;;5029584;28;20313;-54
2022/07/18 03:05:02;;;;;;;2.55;1.52;;;;;;;;;;5032104;28;20029;-56
2022/07/18 03:08:00;;;;;;;1.92;1.25;;;;;;;;;;5031717;28;20201;-56
2022/07/18 03:10:44;;;;;;;3.03;1.70;;;;;;;;;;5027050;28;20053;-55
2022/07/18 03:13:16;;;;;;;6.55;1.75;;;;;;;;;;5032031;28;20021;-56
2022/07/18 03:15:52;;;;;;;3.67;2.30;;;;;;;;;;5031838;28;20105;-54
2022/07/18 03:18:22;;;;;;;2.88;1.90;;;;;;;;;;5031899;28;20092;-56
2022/07/18 03:20:52;;;;;;;3.40;1.75;;;;;;;;;;5030433;28;20038;-55
2022/07/18 03:23:20;;;;;;;2.50;1.40;;;;;;;;;;5030693;28;20048;-56
2022/07/18 03:25:57;;;;;;;;;;;;;;;;;;;;;
2022/07/18 03:28:46;;;;;;;2.97;2.40;;;;;;;;;;5032107;28;20025;-55
2022/07/18 03:31:12;;;;;;;2.45;1.50;;;;;;;;;;5025311;28;20172;-56
2022/07/18 03:33:39;;;;;;;3.40;1.80;;;;;;;;;;5032336;28;20026;-56
2022/07/18 03:36:11;;;;;;;2.85;1.85;;;;;;;;;;5030915;28;20013;-57
2022/07/18 03:38:48;;;;;;;3.60;2.10;;;;;;;;;;5032365;28;20110;-56
2022/07/18 03:41:30;;;;;;;2.50;1.65;;;;;;;;;;5030263;28;20038;-56
2022/07/18 03:43:58;;;;;;;4.00;2.15;;;;;;;;;;5032163;28;20029;-56
2022/07/18 03:46:55;;;;;;;2.85;1.85;;;;;;;;;;5031674;28;20030;-57
2022/07/18 03:49:57;;;;;;;;;;;;;;;;;;;;;
2022/07/18 03:55:27;;;;;;;3.65;2.25;;;;;;;;;;5040480;28;20045;-57
2022/07/18 03:57:56;;;;;;;4.40;1.80;;;;;;;;;;5050463;28;20052;-56
2022/07/18 04:00:37;;;;;;;3.13;2.33;;;;;;;;;;5050595;28;20029;-56
2022/07/18 04:03:07;;;;;;;3.92;2.10;;;;;;;;;;5047563;28;20541;-56
2022/07/18 04:05:42;;;;;;;4.15;2.42;;;;;;;;;;5046452;28;20680;-55
2022/07/18 04:08:24;;;;;;;;;;;;;;;;;;;;;
2022/07/18 04:11:05;;;;;;;2.30;1.95;;;;;;;;;;5049908;28;20037;-56
2022/07/18 04:13:34;;;;;;;7.95;2.95;;;;;;;;;;5055226;28;20033;-55
2022/07/18 04:16:30;;;;;;;4.40;2.47;;;;;;;;;;5054470;28;20065;-56
2022/07/18 04:19:14;;;;;;;3.50;2.25;;;;;;;;;;5053379;28;20037;-57
2022/07/18 04:21:43;;;;;;;4.43;2.60;;;;;;;;;;5054323;28;20116;-54
2022/07/18 04:24:25;;;;;;;3.47;2.45;;;;;;;;;;5054324;28;20025;-56
2022/07/18 04:26:57;;;;;;;3.53;2.67;;;;;;;;;;5055034;28;20027;-56
2022/07/18 04:29:39;;;;;;;2.80;2.03;;;;;;;;;;5052549;28;20083;-55
2022/07/18 04:32:31;;;;;;;2.70;2.10;;;;;;;;;;5053976;28;20021;-58
2022/07/18 04:38:12;;;;;;;5.22;3.03;;;;;;;;;;5036617;28;20045;-57
2022/07/18 04:40:43;;;;;;;4.03;2.72;;;;;;;;;;5030273;28;20051;-56
2022/07/18 04:43:29;;;;;;;3.40;2.45;;;;;;;;;;5045059;28;20039;-56
2022/07/18 04:45:56;;;;;;;3.47;2.22;;;;;;;;;;5047179;28;20528;-56
2022/07/18 04:48:28;;;;;;;3.40;2.35;;;;;;;;;;5052262;28;20175;-56
2022/07/18 04:51:03;;;;;;;4.80;1.98;;;;;;;;;;5040233;28;20029;-56
2022/07/18 04:53:42;;;;;;;;;;;;;;;;;;;;;
2022/07/18 04:56:17;;;;;;;4.32;2.38;;;;;;;;;;5049844;28;20047;-56
2022/07/18 04:58:53;;;;;;;3.40;2.50;;;;;;;;;;5054092;28;20033;-55
2022/07/18 05:01:22;;;;;;;3.97;2.78;;;;;;;;;;5049487;28;20037;-56
2022/07/18 05:04:04;;;;;;;3.35;2.45;;;;;;;;;;5044179;28;20025;-57
2022/07/18 05:06:45;;;;;;;3.17;2.40;;;;;;;;;;5042876;28;20132;-57
2022/07/18 05:09:28;;;;;;;3.40;2.10;;;;;;;;;;5050497;28;20083;-57
2022/07/18 05:12:26;;;;;;;4.18;2.90;;;;;;;;;;5041231;28;20080;-56
2022/07/18 05:15:01;;;;;;;5.22;2.40;;;;;;;;;;5033746;28;20029;-57
2022/07/18 05:17:59;;;;;;;;;;;;;;;;;;;;;
2022/07/18 05:20:30;;;;;;;3.85;2.42;;;;;;;;;;5049355;28;20041;-56
2022/07/18 05:23:02;;;;;;;;;;;;;;;;;;5045281;28;20029;-56
2022/07/18 05:25:47;;;;;;;4.35;2.63;;;;;;;;;;5035048;28;19913;-57
2022/07/18 05:28:16;;;;;;;3.75;2.35;;;;;;;;;;5052298;28;20079;-56
2022/07/18 05:31:01;;;;;;;2.88;2.20;;;;;;;;;;5051318;28;20029;-56
2022/07/18 05:33:37;;;;;;;4.03;2.35;;;;;;;;;;5044979;28;20025;-56
2022/07/18 05:39:06;;;;;;;;;;;;;;;;;;;;;
2022/07/18 05:41:55;;;;;;;2.80;2.00;;;;;;;;;;5033795;28;20041;-56
2022/07/18 05:44:42;;;;;;;3.67;2.78;;;;;;;;;;5040278;28;20021;-55
2022/07/18 05:47:13;;;;;;;4.00;2.35;;;;;;;;;;5041823;28;20550;-54
2022/07/18 05:49:40;;;;;;;7.80;2.40;;;;;;;;;;5053556;28;20044;-57
2022/07/18 05:52:15;;;;;;;3.53;2.42;;;;;;;;;;5034553;28;20037;-57
2022/07/18 05:54:50;;;;;;;3.80;2.40;;;;;;;;;;5047482;28;20374;-58
2022/07/18 05:57:22;;;;;;;2.47;1.77;;;;;;;;;;5032826;28;20173;-56
2022/07/18 06:00:10;;;;;;;3.95;2.03;;;;;;;;;;5043503;28;20065;-56
2022/07/18 06:02:37;;;;;;;2.45;1.75;;;;;;;;;;5053338;28;20037;-56
2022/07/18 06:05:09;;;;;;;3.70;2.17;;;;;;;;;;5052408;28;20029;-56
2022/07/18 06:07:46;;;;;;;3.10;2.13;;;;;;;;;;5052443;28;20032;-54
2022/07/18 06:10:33;;;;;;;3.13;1.90;;;;;;;;;;5044268;28;20041;-56
2022/07/18 06:13:20;;;;;;;2.25;1.70;;;;;;;;;;5037645;28;20481;-56
2022/07/18 06:15:49;;;;;;;2.90;1.92;;;;;;;;;;5050712;28;20032;-54
2022/07/18 06:18:18;;;;;;;3.88;2.28;;;;;;;;;;5050587;28;20422;-56
2022/07/18 06:20:44;;;;;;;2.97;2.08;;;;;;;;;;5049725;28;20033;-56
2022/07/18 06:23:23;;;;;;;2.60;1.80;;;;;;;;;;5043972;28;20060;-56
2022/07/18 06:25:56;;;;;;;3.10;1.80;;;;;;;;;;5051470;28;20018;-56
2022/07/18 06:28:28;;;;;;;3.47;2.03;;;;;;;;;;5051470;28;20134;-56
2022/07/18 06:31:01;;;;;;;3.42;2.20;;;;;;;;;;5049728;28;20367;-56
2022/07/18 06:33:55;;;;;;;4.20;2.10;;;;;;;;;;5041483;28;20363;-55
2022/07/18 06:36:45;;;;;;;2.78;1.83;;;;;;;;;;5036629;28;20392;-55
2022/07/18 06:39:22;;;;;;;2.95;2.30;;;;;;;;;;5046270;28;20033;-56
2022/07/18 06:42:41;;;;;;;4.40;1.75;;;;;;;;;;5038701;28;20029;-57
2022/07/18 06:44:48;;;;;;;2.55;1.88;;;;;;;;;;5049663;28;20029;-56
2022/07/18 06:47:19;;;;;;;3.42;1.70;;;;;;;;;;5039267;28;20053;-54
2022/07/18 06:49:52;;;;;;;3.70;1.98;;;;;;;;;;5034550;28;20390;-56
2022/07/18 06:52:24;;;;;;;2.88;2.00;;;;;;;;;;5043727;28;20052;-56
2022/07/18 06:55:01;;;;;;;3.20;1.95;;;;;;;;;;5052066;28;20113;-56
2022/07/18 06:57:30;;;;;;;3.42;2.08;;;;;;;;;;5039569;28;20033;-56
2022/07/18 07:03:02;;;;;;;2.45;1.67;;;;;;;;;;5052703;28;20460;-55
2022/07/18 07:06:08;;;;;;;2.83;1.85;;;;;;;;;;5049979;28;20056;-56
2022/07/18 07:08:48;;;;;;;3.00;2.22;;;;;;;;;;5044913;28;20041;-56
2022/07/18 07:11:30;;;;;;;7.63;2.55;;;;;;;;;;5051417;28;20021;-56
2022/07/18 07:14:03;;;;;;;3.15;1.40;;;;;;;;;;5051879;28;20467;-55
2022/07/18 07:16:38;;;;;;;3.15;1.90;;;;;;;;;;5051466;28;20033;-58
2022/07/18 07:19:22;;;;;;;3.40;1.55;;;;;;;;;;5050324;28;20044;-57
2022/07/18 07:22:04;;;;;;;2.30;1.52;;;;;;;;;;5050826;28;20445;-56
2022/07/18 07:24:39;;;;;;;4.05;1.95;;;;;;;;;;5048146;28;20037;-56
2022/07/18 07:27:19;;;;;;;2.33;1.65;;;;;;;;;;5044260;28;20018;-57
2022/07/18 07:29:46;;;;;;;6.13;1.95;;;;;;;;;;5031633;28;20056;-57
2022/07/18 07:32:16;;;;;;;2.20;1.77;;;;;;;;;;5030451;28;20074;-56
2022/07/18 07:35:10;;;;;;;2.53;1.45;;;;;;;;;;5032037;28;20353;-56
2022/07/18 07:38:17;;;;;;;;;;;;;;;;;;;;;
2022/07/18 07:43:57;;;;;;;2.65;1.58;;;;;;;;;;5051785;28;20029;-56
2022/07/18 07:46:41;;;;;;;4.57;2.35;;;;;;;;;;5044934;28;20833;-55
2022/07/18 07:49:07;;;;;;;4.10;2.40;;;;;;;;;;5054184;28;20037;-56
2022/07/18 07:54:53;;;;;;;2.55;1.65;;;;;;;;;;5054314;28;20040;-56
2022/07/18 07:57:48;;;;;;;4.43;2.08;;;;;;;;;;5047431;28;20107;-58
2022/07/18 08:00:18;;;;;;;4.32;1.88;;;;;;;;;;5034514;28;20479;-59
2022/07/18 08:03:06;;;;;;;2.63;1.52;;;;;;;;;;5034780;28;20374;-59
2022/07/18 08:05:51;;;;;;;2.80;1.83;;;;;;;;;;5016291;28;20033;-59
2022/07/18 08:11:07;;;;;;;5.65;1.85;;;;;;;;;;5053973;28;20128;-59
2022/07/18 08:13:35;;;;;;;3.25;1.98;;;;;;;;;;5053606;28;20025;-59
2022/07/18 08:16:04;;;;;;;2.03;1.48;;;;;;;;;;5054920;28;20186;-59
2022/07/18 08:18:38;;;;;;;1.90;1.27;;;;;;;;;;5054619;28;20457;-59
2022/07/18 08:21:14;;;;;;;3.22;1.30;;;;;;;;;;5047689;28;20032;-59
2022/07/18 08:23:48;;;;;;;2.72;1.50;;;;;;;;;;5053284;28;20036;-59
2022/07/18 08:26:30;;;;;;;2.50;1.38;;;;;;;;;;5054658;28;20025;-59
2022/07/18 08:29:08;;;;;;;2.78;1.80;;;;;;;;;;5054687;28;20124;-59
2022/07/18 08:31:40;;;;;;;2.58;1.45;;;;;;;;;;5052353;28;20040;-59
2022/07/18 08:34:15;;;;;;;3.20;2.22;;;;;;;;;;5050962;28;20055;-59
2022/07/18 08:36:50;;;;;;;2.78;1.50;;;;;;;;;;5048989;28;20501;-59
2022/07/18 08:39:23;;;;;;;3.72;1.83;;;;;;;;;;5054071;28;20083;-59
2022/07/18 08:41:52;;;;;;;7.22;1.77;;;;;;;;;;5053460;28;20056;-59
2022/07/18 08:44:24;;;;;;;3.90;2.00;;;;;;;;;;5048496;28;20037;-59
2022/07/18 08:47:17;;;;;;;2.88;1.98;;;;;;;;;;5053784;28;20056;-59
2022/07/18 08:49:44;;;;;;;2.80;1.75;;;;;;;;;;5052795;28;20029;-59
2022/07/18 08:52:19;;;;;;;2.20;1.55;;;;;;;;;;5053102;28;20120;-59
2022/07/18 08:54:48;;;;;;;3.05;1.77;;;;;;;;;;5054281;28;20075;-58
2022/07/18 08:57:35;;;;;;;3.08;1.70;;;;;;;;;;5049076;28;20043;-58
2022/07/18 09:00:09;;;;;;;3.17;2.08;;;;;;;;;;5046490;28;20375;-58
2022/07/18 09:02:41;;;;;;;3.00;1.65;;;;;;;;;;5047468;28;20049;-58
2022/07/18 09:05:23;;;;;;;2.95;1.90;;;;;;;;;;5052280;28;20067;-58
2022/07/18 09:07:49;;;;;;;2.45;1.55;;;;;;;;;;5053879;28;20056;-58
2022/07/18 09:10:27;;;;;;;6.57;1.52;;;;;;;;;;5052879;28;20055;-58
2022/07/18 09:13:01;;;;;;;3.25;1.67;;;;;;;;;;5050611;28;20032;-58
2022/07/18 09:15:35;;;;;;;2.63;1.40;;;;;;;;;;5053718;28;20061;-58
2022/07/18 09:18:12;;;;;;;2.70;1.90;;;;;;;;;;5052389;28;20025;-59
2022/07/18 09:20:40;;;;;;;3.20;1.88;;;;;;;;;;5052920;28;20077;-58
2022/07/18 09:23:16;;;;;;;3.08;2.15;;;;;;;;;;5053494;28;20025;-59
2022/07/18 09:25:48;;;;;;;4.18;1.25;;;;;;;;;;5054075;28;20053;-58
2022/07/18 09:28:18;;;;;;;2.70;1.40;;;;;;;;;;5048451;28;20505;-58
2022/07/18 09:30:47;;;;;;;3.30;1.67;;;;;;;;;;5051217;28;20548;-58
2022/07/18 09:33:15;;;;;;;2.47;1.40;;;;;;;;;;5050225;28;20356;-59
2022/07/18 09:35:50;;;;;;;2.55;1.65;;;;;;;;;;5051099;28;20021;-59
2022/07/18 09:38:25;;;;;;;2.42;1.23;;;;;;;;;;5051959;28;20405;-59
2022/07/18 09:40:52;;;;;;;1.85;1.15;;;;;;;;;;5051214;28;20559;-59
2022/07/18 09:43:21;;;;;;;2.28;1.17;;;;;;;;;;5049172;28;20115;-59
2022/07/18 09:45:54;;;;;;;2.15;1.60;;;;;;;;;;5052990;28;20020;-58
2022/07/18 09:48:21;;;;;;;2.08;1.40;;;;;;;;;;5045632;28;20601;-59
2022/07/18 09:51:03;;;;;;;3.60;1.85;;;;;;;;;;5050576;28;20119;-59
2022/07/18 09:53:32;;;;;;;10.38;1.80;;;;;;;;;;5053074;28;20024;-59
2022/07/18 09:56:09;;;;;;;5.13;1.63;;;;;;;;;;5052988;28;20024;-59
2022/07/18 09:58:37;;;;;;;2.60;1.80;;;;;;;;;;5052215;28;20099;-59
2022/07/18 10:01:06;;;;;;;2.63;1.75;;;;;;;;;;5045362;28;20028;-59
2022/07/18 10:03:32;;;;;;;2.90;1.67;;;;;;;;;;5043069;28;20025;-59
2022/07/18 10:06:00;;;;;;;2.78;1.50;;;;;;;;;;5052597;28;20017;-59
2022/07/18 10:08:33;;;;;;;2.70;1.50;;;;;;;;;;5051845;28;20036;-59
2022/07/18 10:11:00;;;;;;;3.10;1.52;;;;;;;;;;5050478;28;20029;-59
2022/07/18 10:13:30;;;;;;;2.92;1.80;;;;;;;;;;5052575;28;20423;-59
2022/07/18 10:16:11;;;;;;;2.50;1.45;;;;;;;;;;5048646;28;20028;-59
2022/07/18 10:18:41;;;;;;;2.03;1.40;;;;;;;;;;5048535;28;20029;-59
2022/07/18 10:21:11;;;;;;;2.50;1.70;;;;;;;;;;5051632;28;20447;-59
2022/07/18 10:23:37;;;;;;;3.63;1.65;;;;;;;;;;5052203;28;20425;-59
2022/07/18 10:26:21;;;;;;;2.20;1.42;;;;;;;;;;5052558;28;20033;-59
2022/07/18 10:29:16;;;;;;;2.83;1.35;;;;;;;;;;5052429;28;20029;-59
2022/07/18 10:32:00;;;;;;;2.80;1.90;;;;;;;;;;5050578;28;20044;-59
2022/07/18 10:34:33;;;;;;;2.10;1.42;;;;;;;;;;5050227;28;20033;-59
2022/07/18 10:37:03;;;;;;;3.83;1.50;;;;;;;;;;5050993;28;20021;-59
2022/07/18 10:39:49;;;;;;;1.90;1.50;;;;;;;;;;5052030;28;20437;-60
2022/07/18 10:42:24;;;;;;;2.35;1.30;;;;;;;;;;5051950;28;20252;-59
2022/07/18 10:44:50;;;;;;;2.88;1.50;;;;;;;;;;5034968;28;20368;-59
2022/07/18 10:47:17;;;;;;;2.50;1.38;;;;;;;;;;5050650;28;20027;-59
2022/07/18 10:49:49;;;;;;;2.60;1.63;;;;;;;;;;5050968;28;20086;-59
2022/07/18 10:52:35;;;;;;;2.17;1.42;;;;;;;;;;5050729;28;20429;-59
2022/07/18 10:55:19;;;;;;;2.53;1.20;;;;;;;;;;5051862;28;20096;-59
2022/07/18 10:57:52;;;;;;;3.72;1.55;;;;;;;;;;5047680;28;20108;-59
2022/07/18 11:00:49;;;;;;;2.72;1.33;;;;;;;;;;5049739;28;20506;-59
2022/07/18 11:03:23;;;;;;;1.58;0.90;;;;;;;;;;5045693;28;20112;-60
2022/07/18 11:05:50;;;;;;;5.88;1.40;;;;;;;;;;5051431;28;20144;-59
2022/07/18 11:08:18;;;;;;;3.20;1.73;;;;;;;;;;5050629;28;20025;-60
2022/07/18 11:10:49;;;;;;;1.85;1.17;;;;;;;;;;5049895;28;20036;-59
2022/07/18 11:13:34;;;;;;;1.80;1.05;;;;;;;;;;5051703;28;20029;-59
2022/07/18 11:16:04;;;;;;;1.67;1.17;;;;;;;;;;5041843;28;20577;-60
2022/07/18 11:18:31;;;;;;;6.07;1.00;;;;;;;;;;5048461;28;20044;-60
2022/07/18 11:20:57;;;;;;;2.20;0.98;;;;;;;;;;5049634;28;20120;-60
2022/07/18 11:23:27;;;;;;;2.88;0.70;;;;;;;;;;5033957;28;20017;-60
2022/07/18 11:25:57;;;;;;;2.67;1.42;;;;;;;;;;5035456;28;20084;-60
2022/07/18 11:28:23;;;;;;;1.85;1.20;;;;;;;;;;5030534;28;20415;-60
2022/07/18 11:31:03;;;;;;;2.00;1.15;;;;;;;;;;5041589;28;20032;-60
2022/07/18 11:33:33;;;;;;;1.73;0.95;;;;;;;;;;5050172;28;20029;-59
2022/07/18 11:36:05;;;;;;;2.03;1.15;;;;;;;;;;5049445;28;20033;-60
2022/07/18 11:38:31;;;;;;;1.83;1.00;;;;;;;;;;5044003;28;20047;-60
2022/07/18 11:40:57;;;;;;;2.30;1.25;;;;;;;;;;5050557;28;20364;-60
2022/07/18 11:43:24;;;;;;;1.67;1.02;;;;;;;;;;5049539;28;20036;-60
2022/07/18 11:46:03;;;;;;;3.55;1.23;;;;;;;;;;5041323;28;20021;-60
2022/07/18 11:48:29;;;;;;;2.75;1.20;;;;;;;;;;5048121;28;20499;-60
2022/07/18 11:50:55;;;;;;;1.90;0.90;;;;;;;;;;5041379;28;20025;-60
2022/07/18 11:53:24;;;;;;;2.40;1.40;;;;;;;;;;5040046;28;20036;-60
2022/07/18 11:55:50;;;;;;;2.30;1.10;;;;;;;;;;5030302;28;20447;-60
2022/07/18 11:58:16;;;;;;;2.13;1.40;;;;;;;;;;5037154;28;20442;-60
2022/07/18 12:00:43;;;;;;;2.53;1.52;;;;;;;;;;5050572;28;20025;-60
2022/07/18 12:03:20;;;;;;;1.60;0.95;;;;;;;;;;5051394;28;20382;-60
2022/07/18 12:05:48;;;;;;;2.72;1.70;;;;;;;;;;5049915;28;20485;-60
2022/07/18 12:08:26;;;;;;;2.55;1.48;;;;;;;;;;5051495;28;20025;-60
2022/07/18 12:11:11;;;;;;;2.53;1.30;;;;;;;;;;5047950;28;20067;-60
2022/07/18 12:13:48;;;;;;;2.38;1.15;;;;;;;;;;5048847;28;20044;-60
2022/07/18 12:16:28;;;;;;;2.47;1.60;;;;;;;;;;5042189;28;20052;-60
2022/07/18 12:18:54;;;;;;;;;;;;;;;;;;5050385;28;20378;-60
2022/07/18 12:21:21;;;;;;;1.50;1.00;;;;;;;;;;5050815;28;19905;-60
2022/07/18 12:23:47;;;;;;;3.13;1.38;;;;;;;;;;5051227;28;20037;-60
2022/07/18 12:26:28;;;;;;;1.77;0.90;;;;;;;;;;5042657;28;20470;-60
2022/07/18 12:29:05;;;;;;;1.45;0.80;;;;;;;;;;5050928;28;20036;-60
2022/07/18 12:31:43;;;;;;;2.80;1.42;;;;;;;;;;5033051;28;20471;-60
2022/07/18 12:34:15;;;;;;;3.05;1.35;;;;;;;;;;5054654;28;20025;-60
2022/07/18 12:36:51;;;;;;;1.70;1.02;;;;;;;;;;5037843;28;20071;-60
2022/07/18 12:39:33;;;;;;;3.20;1.60;;;;;;;;;;5034477;28;20029;-60
2022/07/18 12:42:00;;;;;;;2.00;1.13;;;;;;;;;;5046457;28;20056;-60
2022/07/18 12:44:27;;;;;;;2.97;1.30;;;;;;;;;;5052349;28;20055;-60
2022/07/18 12:46:54;;;;;;;1.75;1.05;;;;;;;;;;5047532;28;20025;-60
2022/07/18 12:49:20;;;;;;;1.95;1.13;;;;;;;;;;5047767;28;20025;-60
2022/07/18 12:51:46;;;;;;;2.63;1.23;;;;;;;;;;5052349;28;20050;-60
2022/07/18 12:54:12;;;;;;;1.73;1.10;;;;;;;;;;5054525;28;20029;-60
2022/07/18 12:56:38;;;;;;;1.73;1.00;;;;;;;;;;5043060;28;20075;-60
2022/07/18 12:59:05;;;;;;;1.88;1.17;;;;;;;;;;5034280;28;20115;-60
2022/07/18 13:01:31;;;;;;;1.35;0.70;;;;;;;;;;5042464;28;20078;-60
2022/07/18 13:03:57;;;;;;;2.20;1.25;;;;;;;;;;5053966;28;20123;-60
2022/07/18 13:06:23;;;;;;;1.85;1.15;;;;;;;;;;5052576;28;20037;-60
2022/07/18 13:08:49;;;;;;;2.28;1.15;;;;;;;;;;5054316;28;20046;-59
2022/07/18 13:11:15;;;;;;;1.88;1.10;;;;;;;;;;5050078;28;20466;-60
2022/07/18 13:13:41;;;;;;;2.10;1.10;;;;;;;;;;5053933;28;20025;-60
2022/07/18 13:16:07;;;;;;;2.28;1.20;;;;;;;;;;5042534;28;20040;-60
2022/07/18 13:18:33;;;;;;;2.70;1.33;;;;;;;;;;5033920;28;20141;-60
2022/07/18 13:20:59;;;;;;;1.92;1.40;;;;;;;;;;5032768;28;20056;-60
2022/07/18 13:23:25;;;;;;;2.30;1.20;;;;;;;;;;5050116;28;20021;-60
2022/07/18 13:25:51;;;;;;;1.98;1.20;;;;;;;;;;5044685;28;20064;-60
2022/07/18 13:28:17;;;;;;;2.28;1.40;;;;;;;;;;5033720;28;20033;-60
2022/07/18 13:30:44;;;;;;;1.80;1.08;;;;;;;;;;5033135;28;20097;-60
2022/07/18 13:33:10;;;;;;;2.47;1.20;;;;;;;;;;5033829;28;20048;-60
2022/07/18 13:35:36;;;;;;;4.05;1.40;;;;;;;;;;5045175;28;20418;-60
2022/07/18 13:38:02;;;;;;;2.38;1.20;;;;;;;;;;5053787;28;20025;-60
2022/07/18 13:40:28;;;;;;;2.80;1.42;;;;;;;;;;5053030;28;20048;-60
2022/07/18 13:42:54;;;;;;;2.20;1.45;;;;;;;;;;5035796;28;20028;-60
2022/07/18 13:45:20;;;;;;;2.17;1.15;;;;;;;;;;5051280;28;20021;-60
2022/07/18 13:47:46;;;;;;;1.83;0.95;;;;;;;;;;5053396;28;20017;-60
2022/07/18 13:50:12;;;;;;;3.65;1.35;;;;;;;;;;5043048;28;20315;-60
2022/07/18 13:52:38;;;;;;;2.53;1.67;;;;;;;;;;5052225;28;20022;-60
2022/07/18 13:55:04;;;;;;;3.25;1.80;;;;;;;;;;5051372;28;20036;-60
2022/07/18 13:57:30;;;;;;;1.85;1.15;;;;;;;;;;5035113;28;20017;-60
2022/07/18 13:59:56;;;;;;;2.13;1.13;;;;;;;;;;5041985;28;20082;-60
2022/07/18 14:02:22;;;;;;;2.90;1.50;;;;;;;;;;5053046;28;20394;-60
2022/07/18 14:04:48;;;;;;;2.15;1.05;;;;;;;;;;5043989;28;20033;-60
2022/07/18 14:07:17;;;;;;;1.88;1.38;;;;;;;;;;5041276;28;20032;-60
2022/07/18 14:09:43;;;;;;;2.33;1.10;;;;;;;;;;5033000;28;20442;-60
2022/07/18 14:12:09;;;;;;;1.95;1.02;;;;;;;;;;5032305;28;20100;-60
2022/07/18 14:14:38;;;;;;;1.92;1.27;;;;;;;;;;5042324;28;20135;-60
2022/07/18 14:17:04;;;;;;;2.92;1.40;;;;;;;;;;5039061;28;20382;-60
2022/07/18 14:19:30;;;;;;;5.00;1.58;;;;;;;;;;5047424;28;20105;-60
2022/07/18 14:21:56;;;;;;;3.28;1.30;;;;;;;;;;5038140;28;20017;-60
2022/07/18 14:24:22;;;;;;;2.85;1.40;;;;;;;;;;5040532;28;20423;-60
2022/07/18 14:26:48;;;;;;;2.78;1.33;;;;;;;;;;5044113;28;20029;-60
2022/07/18 14:29:14;;;;;;;2.20;1.58;;;;;;;;;;5046269;28;20029;-60
2022/07/18 14:31:40;;;;;;;2.35;1.40;;;;;;;;;;5038185;28;20025;-60
2022/07/18 14:34:06;;;;;;;2.08;1.23;;;;;;;;;;5044548;28;20090;-60
2022/07/18 14:36:32;;;;;;;1.88;1.20;;;;;;;;;;5049920;28;20017;-60
2022/07/18 14:38:58;;;;;;;2.05;1.50;;;;;;;;;;5042886;28;20474;-60
2022/07/18 14:41:24;;;;;;;1.85;1.10;;;;;;;;;;5047660;28;20040;-61
2022/07/18 14:43:50;;;;;;;1.73;1.02;;;;;;;;;;5049820;28;20025;-60
2022/07/18 14:46:16;;;;;;;2.33;1.48;;;;;;;;;;5041942;28;20384;-60
2022/07/18 14:48:42;;;;;;;2.08;1.33;;;;;;;;;;5046196;28;20102;-60
2022/07/18 14:51:08;;;;;;;2.15;1.08;;;;;;;;;;5049402;28;20025;-60
2022/07/18 14:53:34;;;;;;;2.47;1.27;;;;;;;;;;5046331;28;20032;-60
2022/07/18 14:56:00;;;;;;;5.00;1.45;;;;;;;;;;5041438;28;20021;-60
2022/07/18 14:58:26;;;;;;;2.88;1.40;;;;;;;;;;5038899;28;20029;-60
2022/07/18 15:00:52;;;;;;;2.50;1.42;;;;;;;;;;5037874;28;20490;-60
2022/07/18 15:03:18;;;;;;;2.78;1.77;;;;;;;;;;5041884;28;20053;-60
2022/07/18 15:05:44;;;;;;;2.15;1.42;;;;;;;;;;5039229;28;20022;-60
2022/07/18 15:08:10;;;;;;;2.17;1.40;;;;;;;;;;5039261;28;20424;-60
2022/07/18 15:10:36;;;;;;;2.90;1.30;;;;;;;;;;5047216;28;20104;-60
2022/07/18 15:13:02;;;;;;;3.28;1.70;;;;;;;;;;5045369;28;20117;-60
2022/07/18 15:15:28;;;;;;;1.90;1.38;;;;;;;;;;5037490;28;20033;-59
2022/07/18 15:17:54;;;;;;;3.80;1.75;;;;;;;;;;5048055;28;20025;-60
2022/07/18 15:20:20;;;;;;;2.85;1.70;;;;;;;;;;5045460;28;20033;-60
2022/07/18 15:22:46;;;;;;;2.17;1.48;;;;;;;;;;5046512;28;20032;-59
2022/07/18 15:25:12;;;;;;;3.22;1.75;;;;;;;;;;5041910;28;20063;-60
2022/07/18 15:27:38;;;;;;;4.18;1.38;;;;;;;;;;5039381;28;20032;-59
2022/07/18 15:30:05;;;;;;;2.38;2.00;;;;;;;;;;5046103;28;20498;-60
2022/07/18 15:32:31;;;;;;;2.45;1.45;;;;;;;;;;5042211;28;20368;-60
2022/07/18 15:34:57;;;;;;;3.85;1.55;;;;;;;;;;5039062;28;20032;-60
2022/07/18 15:37:23;;;;;;;5.97;1.95;;;;;;;;;;5039450;28;20025;-60
2022/07/18 15:39:49;;;;;;;3.42;1.30;;;;;;;;;;5034919;28;20043;-60
2022/07/18 15:42:15;;;;;;;2.78;1.45;;;;;;;;;;5043103;28;20390;-60
2022/07/18 15:44:41;;;;;;;2.97;1.70;;;;;;;;;;5046010;28;20112;-59
2022/07/18 15:47:07;;;;;;;2.92;1.75;;;;;;;;;;5036636;28;20025;-59
2022/07/18 15:49:34;;;;;;;3.83;1.60;;;;;;;;;;5047178;28;20117;-59
2022/07/18 15:52:00;;;;;;;2.47;1.65;;;;;;;;;;5028158;28;20203;-59
2022/07/18 15:54:26;;;;;;;2.15;1.38;;;;;;;;;;5035634;28;20049;-59
2022/07/18 15:56:52;;;;;;;2.13;1.17;;;;;;;;;;5031613;28;20382;-60
2022/07/18 15:59:18;;;;;;;2.30;1.30;;;;;;;;;;5040112;28;20040;-59
2022/07/18 16:01:44;;;;;;;1.85;1.33;;;;;;;;;;5040764;28;20026;-59
2022/07/18 16:04:10;;;;;;;2.53;1.20;;;;;;;;;;5037637;28;20418;-59